sensor_id;sensor_type;location;lat;lon;timestamp;pressure;altitude;pressure_sealevel;temperature;humidity
31357;BME280;60001;48.404;11.738;2023-03-16T00:01:27;96683.53;;;1.45;75.87
31357;BME280;60001;48.404;11.738;2023-03-16T00:03:01;96686.56;;;1.48;76.00
31357;BME280;60001;48.404;11.738;2023-03-16T00:04:33;96680.56;;;1.48;76.42
31357;BME280;60001;48.404;11.738;2023-03-16T00:06:09;96692.59;;;1.49;76.50
31357;BME280;60001;48.404;11.738;2023-03-16T00:07:42;96681.38;;;1.48;76.48
31357;BME280;60001;48.404;11.738;2023-03-16T00:09:14;96675.19;;;1.49;76.26
31357;BME280;60001;48.404;11.738;2023-03-16T00:10:47;96690.59;;;1.51;75.92
31357;BME280;60001;48.404;11.738;2023-03-16T00:12:19;96682.19;;;1.49;75.60
31357;BME280;60001;48.404;11.738;2023-03-16T00:13:52;96667.56;;;1.48;76.48
31357;BME280;60001;48.404;11.738;2023-03-16T00:15:24;96673.56;;;1.48;76.10
31357;BME280;60001;48.404;11.738;2023-03-16T00:16:56;96666.56;;;1.49;76.44
31357;BME280;60001;48.404;11.738;2023-03-16T00:18:30;96676.16;;;1.48;76.21
31357;BME280;60001;48.404;11.738;2023-03-16T00:20:09;96682.38;;;1.47;75.76
31357;BME280;60001;48.404;11.738;2023-03-16T00:21:41;96686.78;;;1.47;76.69
31357;BME280;60001;48.404;11.738;2023-03-16T00:23:12;96691.16;;;1.46;76.86
31357;BME280;60001;48.404;11.738;2023-03-16T00:24:44;96686.13;;;1.45;76.19
31357;BME280;60001;48.404;11.738;2023-03-16T00:26:16;96689.09;;;1.42;75.68
31357;BME280;60001;48.404;11.738;2023-03-16T00:27:47;96688.84;;;1.36;76.53
31357;BME280;60001;48.404;11.738;2023-03-16T00:29:20;96688.22;;;1.34;76.45
31357;BME280;60001;48.404;11.738;2023-03-16T00:30:52;96685.03;;;1.32;76.79
31357;BME280;60001;48.404;11.738;2023-03-16T00:32:30;96683.22;;;1.33;76.95
31357;BME280;60001;48.404;11.738;2023-03-16T00:34:03;96678.94;;;1.25;76.64
31357;BME280;60001;48.404;11.738;2023-03-16T00:35:35;96684.38;;;1.30;76.54
31357;BME280;60001;48.404;11.738;2023-03-16T00:37:08;96690.03;;;1.34;76.72
31357;BME280;60001;48.404;11.738;2023-03-16T00:38:40;96691.63;;;1.35;77.05
31357;BME280;60001;48.404;11.738;2023-03-16T00:40:14;96700.25;;;1.35;76.74
31357;BME280;60001;48.404;11.738;2023-03-16T00:41:46;96690.44;;;1.37;77.59
31357;BME280;60001;48.404;11.738;2023-03-16T00:43:18;96693.69;;;1.40;77.79
31357;BME280;60001;48.404;11.738;2023-03-16T00:44:50;96693.31;;;1.43;77.78
31357;BME280;60001;48.404;11.738;2023-03-16T00:46:26;96692.13;;;1.45;77.56
31357;BME280;60001;48.404;11.738;2023-03-16T00:47:58;96691.16;;;1.46;77.32
31357;BME280;60001;48.404;11.738;2023-03-16T00:49:30;96693.78;;;1.46;77.50
31357;BME280;60001;48.404;11.738;2023-03-16T00:51:06;96692.50;;;1.42;77.15
31357;BME280;60001;48.404;11.738;2023-03-16T00:52:39;96694.06;;;1.36;76.47
31357;BME280;60001;48.404;11.738;2023-03-16T00:54:11;96692.00;;;1.32;76.21
31357;BME280;60001;48.404;11.738;2023-03-16T00:55:42;96685.75;;;1.26;76.73
31357;BME280;60001;48.404;11.738;2023-03-16T00:57:16;96685.84;;;1.18;76.99
31357;BME280;60001;48.404;11.738;2023-03-16T00:58:48;96698.31;;;1.23;76.38
31357;BME280;60001;48.404;11.738;2023-03-16T01:00:20;96685.66;;;1.20;76.72
31357;BME280;60001;48.404;11.738;2023-03-16T01:01:56;96693.47;;;1.20;76.98
31357;BME280;60001;48.404;11.738;2023-03-16T01:03:27;96692.47;;;1.21;76.94
31357;BME280;60001;48.404;11.738;2023-03-16T01:05:00;96692.84;;;1.18;77.21
31357;BME280;60001;48.404;11.738;2023-03-16T01:06:32;96681.38;;;1.12;77.38
31357;BME280;60001;48.404;11.738;2023-03-16T01:08:02;96686.41;;;1.14;77.12
31357;BME280;60001;48.404;11.738;2023-03-16T01:09:34;96692.41;;;1.14;76.76
31357;BME280;60001;48.404;11.738;2023-03-16T01:11:08;96696.00;;;1.13;76.58
31357;BME280;60001;48.404;11.738;2023-03-16T01:12:41;96691.16;;;1.10;77.17
31357;BME280;60001;48.404;11.738;2023-03-16T01:14:14;96694.13;;;1.07;76.51
31357;BME280;60001;48.404;11.738;2023-03-16T01:15:49;96697.25;;;1.02;76.94
31357;BME280;60001;48.404;11.738;2023-03-16T01:17:21;96691.63;;;0.99;76.46
31357;BME280;60001;48.404;11.738;2023-03-16T01:18:53;96692.97;;;0.95;76.90
31357;BME280;60001;48.404;11.738;2023-03-16T01:20:27;96689.56;;;0.94;76.65
31357;BME280;60001;48.404;11.738;2023-03-16T01:21:58;96693.34;;;0.92;77.24
31357;BME280;60001;48.404;11.738;2023-03-16T01:23:31;96692.69;;;0.90;76.98
31357;BME280;60001;48.404;11.738;2023-03-16T01:25:04;96696.47;;;0.87;76.62
31357;BME280;60001;48.404;11.738;2023-03-16T01:26:36;96690.66;;;0.85;76.61
31357;BME280;60001;48.404;11.738;2023-03-16T01:28:08;96690.84;;;0.84;76.97
31357;BME280;60001;48.404;11.738;2023-03-16T01:29:40;96687.59;;;0.81;77.36
31357;BME280;60001;48.404;11.738;2023-03-16T01:31:14;96692.00;;;0.81;76.97
31357;BME280;60001;48.404;11.738;2023-03-16T01:32:45;96689.59;;;0.79;77.47
31357;BME280;60001;48.404;11.738;2023-03-16T01:34:18;96684.56;;;0.78;76.74
31357;BME280;60001;48.404;11.738;2023-03-16T01:35:54;96687.16;;;0.78;77.42
31357;BME280;60001;48.404;11.738;2023-03-16T01:37:26;96683.91;;;0.76;76.83
31357;BME280;60001;48.404;11.738;2023-03-16T01:38:58;96681.31;;;0.76;77.41
31357;BME280;60001;48.404;11.738;2023-03-16T01:40:30;96680.53;;;0.75;77.29
31357;BME280;60001;48.404;11.738;2023-03-16T01:42:02;96673.72;;;0.74;77.49
31357;BME280;60001;48.404;11.738;2023-03-16T01:43:36;96683.13;;;0.75;77.67
31357;BME280;60001;48.404;11.738;2023-03-16T01:47:13;96673.09;;;0.72;77.90
31357;BME280;60001;48.404;11.738;2023-03-16T01:48:51;96652.94;;;0.60;77.60
31357;BME280;60001;48.404;11.738;2023-03-16T01:50:24;96672.09;;;0.73;77.71
31357;BME280;60001;48.404;11.738;2023-03-16T01:52:02;96678.91;;;0.74;78.24
31357;BME280;60001;48.404;11.738;2023-03-16T01:53:37;96665.09;;;0.74;77.96
31357;BME280;60001;48.404;11.738;2023-03-16T01:55:11;96673.72;;;0.74;78.14
31357;BME280;60001;48.404;11.738;2023-03-16T01:56:51;96668.69;;;0.73;77.97
31357;BME280;60001;48.404;11.738;2023-03-16T01:58:25;96663.69;;;0.71;77.59
31357;BME280;60001;48.404;11.738;2023-03-16T02:00:03;96666.91;;;0.73;77.78
31357;BME280;60001;48.404;11.738;2023-03-16T02:01:38;96668.88;;;0.71;77.46
31357;BME280;60001;48.404;11.738;2023-03-16T02:03:13;96665.22;;;0.66;77.18
31357;BME280;60001;48.404;11.738;2023-03-16T02:04:52;96668.44;;;0.68;77.19
31357;BME280;60001;48.404;11.738;2023-03-16T02:06:25;96665.22;;;0.66;77.63
31357;BME280;60001;48.404;11.738;2023-03-16T02:07:58;96666.81;;;0.67;77.90
31357;BME280;60001;48.404;11.738;2023-03-16T02:09:34;96672.00;;;0.67;77.21
31357;BME280;60001;48.404;11.738;2023-03-16T02:11:08;96666.00;;;0.66;77.86
31357;BME280;60001;48.404;11.738;2023-03-16T02:12:42;96664.41;;;0.65;77.51
31357;BME280;60001;48.404;11.738;2023-03-16T02:14:14;96668.81;;;0.65;77.54
31357;BME280;60001;48.404;11.738;2023-03-16T02:15:45;96672.53;;;0.62;77.18
31357;BME280;60001;48.404;11.738;2023-03-16T02:17:21;96672.72;;;0.61;77.29
31357;BME280;60001;48.404;11.738;2023-03-16T02:18:53;96672.13;;;0.59;77.43
31357;BME280;60001;48.404;11.738;2023-03-16T02:20:35;96673.91;;;0.58;77.64
31357;BME280;60001;48.404;11.738;2023-03-16T02:22:09;96679.09;;;0.58;77.52
31357;BME280;60001;48.404;11.738;2023-03-16T02:23:45;96677.50;;;0.57;77.48
31357;BME280;60001;48.404;11.738;2023-03-16T02:25:22;96673.28;;;0.56;77.10
31357;BME280;60001;48.404;11.738;2023-03-16T02:26:59;96675.88;;;0.56;77.07
31357;BME280;60001;48.404;11.738;2023-03-16T02:28:40;96648.91;;;0.42;77.00
31357;BME280;60001;48.404;11.738;2023-03-16T02:30:19;96671.84;;;0.53;76.65
31357;BME280;60001;48.404;11.738;2023-03-16T02:31:53;96665.41;;;0.49;76.39
31357;BME280;60001;48.404;11.738;2023-03-16T02:33:29;96668.97;;;0.48;76.43
31357;BME280;60001;48.404;11.738;2023-03-16T02:35:03;96673.72;;;0.45;76.49
31357;BME280;60001;48.404;11.738;2023-03-16T02:36:37;96672.31;;;0.42;76.98
31357;BME280;60001;48.404;11.738;2023-03-16T02:38:09;96662.44;;;0.38;76.46
31357;BME280;60001;48.404;11.738;2023-03-16T02:39:41;96660.19;;;0.35;76.56
31357;BME280;60001;48.404;11.738;2023-03-16T02:41:15;96659.38;;;0.34;76.27
31357;BME280;60001;48.404;11.738;2023-03-16T02:42:53;96661.16;;;0.34;76.34
31357;BME280;60001;48.404;11.738;2023-03-16T02:44:29;96659.56;;;0.33;76.86
31357;BME280;60001;48.404;11.738;2023-03-16T02:46:06;96664.75;;;0.33;76.78
31357;BME280;60001;48.404;11.738;2023-03-16T02:47:41;96657.94;;;0.32;76.56
31357;BME280;60001;48.404;11.738;2023-03-16T02:49:19;96660.53;;;0.32;76.87
31357;BME280;60001;48.404;11.738;2023-03-16T02:50:54;96658.94;;;0.31;76.49
31357;BME280;60001;48.404;11.738;2023-03-16T02:52:26;96654.72;;;0.30;76.72
31357;BME280;60001;48.404;11.738;2023-03-16T02:53:56;96657.50;;;0.28;76.87
31357;BME280;60001;48.404;11.738;2023-03-16T02:55:28;96659.47;;;0.26;76.39
31357;BME280;60001;48.404;11.738;2023-03-16T02:57:00;96662.25;;;0.24;76.51
31357;BME280;60001;48.404;11.738;2023-03-16T02:58:31;96652.38;;;0.20;76.48
31357;BME280;60001;48.404;11.738;2023-03-16T03:00:04;96660.53;;;0.17;76.25
31357;BME280;60001;48.404;11.738;2023-03-16T03:01:42;96652.66;;;0.10;76.56
31357;BME280;60001;48.404;11.738;2023-03-16T03:03:14;96662.03;;;0.11;77.18
31357;BME280;60001;48.404;11.738;2023-03-16T03:04:45;96654.63;;;0.08;76.86
31357;BME280;60001;48.404;11.738;2023-03-16T03:06:17;96655.63;;;0.07;76.84
31357;BME280;60001;48.404;11.738;2023-03-16T03:07:49;96645.56;;;0.04;76.44
31357;BME280;60001;48.404;11.738;2023-03-16T03:09:21;96657.56;;;0.05;76.94
31357;BME280;60001;48.404;11.738;2023-03-16T03:10:52;96655.13;;;0.04;76.44
31357;BME280;60001;48.404;11.738;2023-03-16T03:12:24;96649.50;;;0.00;77.18
31357;BME280;60001;48.404;11.738;2023-03-16T03:13:55;96649.66;;;-0.02;76.64
31357;BME280;60001;48.404;11.738;2023-03-16T03:15:27;96654.06;;;-0.02;77.01
31357;BME280;60001;48.404;11.738;2023-03-16T03:17:00;96648.25;;;-0.04;76.85
31357;BME280;60001;48.404;11.738;2023-03-16T03:18:33;96653.75;;;-0.07;76.74
31357;BME280;60001;48.404;11.738;2023-03-16T03:20:06;96656.53;;;-0.09;76.83
31357;BME280;60001;48.404;11.738;2023-03-16T03:21:44;96650.44;;;-0.16;76.57
31357;BME280;60001;48.404;11.738;2023-03-16T03:23:16;96661.00;;;-0.17;76.43
31357;BME280;60001;48.404;11.738;2023-03-16T03:24:48;96656.00;;;-0.19;76.57
31357;BME280;60001;48.404;11.738;2023-03-16T03:26:21;96656.97;;;-0.20;77.28
31357;BME280;60001;48.404;11.738;2023-03-16T03:27:54;96656.00;;;-0.19;77.38
31357;BME280;60001;48.404;11.738;2023-03-16T03:29:25;96649.19;;;-0.20;77.49
31357;BME280;60001;48.404;11.738;2023-03-16T03:31:04;96646.25;;;-0.17;77.63
31357;BME280;60001;48.404;11.738;2023-03-16T03:32:37;96653.22;;;-0.17;78.01
31357;BME280;60001;48.404;11.738;2023-03-16T03:34:09;96655.19;;;-0.19;77.80
31357;BME280;60001;48.404;11.738;2023-03-16T03:35:41;96652.41;;;-0.18;77.07
31357;BME280;60001;48.404;11.738;2023-03-16T03:37:13;96653.59;;;-0.20;77.38
31357;BME280;60001;48.404;11.738;2023-03-16T03:38:44;96654.38;;;-0.20;78.00
31357;BME280;60001;48.404;11.738;2023-03-16T03:40:18;96654.38;;;-0.20;77.52
31357;BME280;60001;48.404;11.738;2023-03-16T03:41:50;96643.53;;;-0.23;77.82
31357;BME280;60001;48.404;11.738;2023-03-16T03:43:24;96653.22;;;-0.17;78.24
31357;BME280;60001;48.404;11.738;2023-03-16T03:44:56;96654.22;;;-0.18;77.74
31357;BME280;60001;48.404;11.738;2023-03-16T03:46:27;96650.16;;;-0.21;78.03
31357;BME280;60001;48.404;11.738;2023-03-16T03:48:01;96650.50;;;-0.24;78.12
31357;BME280;60001;48.404;11.738;2023-03-16T03:49:33;96624.53;;;-0.39;77.64
31357;BME280;60001;48.404;11.738;2023-03-16T03:51:04;96643.25;;;-0.29;78.27
31357;BME280;60001;48.404;11.738;2023-03-16T03:52:36;96636.63;;;-0.31;78.28
31357;BME280;60001;48.404;11.738;2023-03-16T03:54:07;96639.22;;;-0.31;78.25
31357;BME280;60001;48.404;11.738;2023-03-16T03:55:39;96632.75;;;-0.35;78.73
31357;BME280;60001;48.404;11.738;2023-03-16T03:57:11;96638.25;;;-0.30;79.00
31357;BME280;60001;48.404;11.738;2023-03-16T03:58:43;96642.28;;;-0.28;78.79
31357;BME280;60001;48.404;11.738;2023-03-16T04:00:14;96642.72;;;-0.24;78.95
31357;BME280;60001;48.404;11.738;2023-03-16T04:01:50;96634.31;;;-0.26;78.47
31357;BME280;60001;48.404;11.738;2023-03-16T04:03:24;96640.31;;;-0.25;78.64
31357;BME280;60001;48.404;11.738;2023-03-16T04:04:56;96633.84;;;-0.30;79.00
31357;BME280;60001;48.404;11.738;2023-03-16T04:06:28;96639.50;;;-0.26;78.66
31357;BME280;60001;48.404;11.738;2023-03-16T04:08:00;96638.72;;;-0.26;78.33
31357;BME280;60001;48.404;11.738;2023-03-16T04:09:32;96650.06;;;-0.28;78.89
31357;BME280;60001;48.404;11.738;2023-03-16T04:11:03;96645.22;;;-0.31;79.12
31357;BME280;60001;48.404;11.738;2023-03-16T04:12:35;96647.00;;;-0.31;79.05
31357;BME280;60001;48.404;11.738;2023-03-16T04:14:07;96641.81;;;-0.31;79.40
31357;BME280;60001;48.404;11.738;2023-03-16T04:15:39;96643.44;;;-0.30;79.19
31357;BME280;60001;48.404;11.738;2023-03-16T04:17:11;96640.03;;;-0.31;79.25
31357;BME280;60001;48.404;11.738;2023-03-16T04:18:43;96645.41;;;-0.32;80.00
31357;BME280;60001;48.404;11.738;2023-03-16T04:20:16;96645.22;;;-0.31;80.13
31357;BME280;60001;48.404;11.738;2023-03-16T04:21:49;96649.09;;;-0.26;80.16
31357;BME280;60001;48.404;11.738;2023-03-16T04:23:21;96647.13;;;-0.24;79.97
31357;BME280;60001;48.404;11.738;2023-03-16T04:24:55;96647.75;;;-0.22;80.37
31357;BME280;60001;48.404;11.738;2023-03-16T04:26:25;96654.38;;;-0.20;80.33
31357;BME280;60001;48.404;11.738;2023-03-16T04:27:57;96649.63;;;-0.16;81.04
31357;BME280;60001;48.404;11.738;2023-03-16T04:29:29;96644.81;;;-0.19;80.93
31357;BME280;60001;48.404;11.738;2023-03-16T04:31:01;96658.50;;;-0.11;81.27
31357;BME280;60001;48.404;11.738;2023-03-16T04:32:35;96663.19;;;-0.06;81.49
31357;BME280;60001;48.404;11.738;2023-03-16T04:34:09;96664.44;;;-0.02;81.03
31357;BME280;60001;48.404;11.738;2023-03-16T04:35:42;96659.91;;;0.00;81.16
31357;BME280;60001;48.404;11.738;2023-03-16T04:37:15;96653.72;;;0.01;80.71
31357;BME280;60001;48.404;11.738;2023-03-16T04:38:47;96653.06;;;-0.01;80.49
31357;BME280;60001;48.404;11.738;2023-03-16T04:40:18;96652.25;;;-0.02;80.80
31357;BME280;60001;48.404;11.738;2023-03-16T04:41:50;96659.91;;;0.00;81.25
31357;BME280;60001;48.404;11.738;2023-03-16T04:43:22;96659.72;;;0.02;80.97
31357;BME280;60001;48.404;11.738;2023-03-16T04:44:53;96653.72;;;0.01;80.96
31357;BME280;60001;48.404;11.738;2023-03-16T04:46:25;96648.06;;;-0.03;80.47
31357;BME280;60001;48.404;11.738;2023-03-16T04:47:57;96644.38;;;-0.08;79.99
31357;BME280;60001;48.404;11.738;2023-03-16T04:49:30;96647.34;;;-0.11;80.25
31357;BME280;60001;48.404;11.738;2023-03-16T04:51:03;96643.47;;;-0.15;80.58
31357;BME280;60001;48.404;11.738;2023-03-16T04:52:35;96640.88;;;-0.15;80.65
31357;BME280;60001;48.404;11.738;2023-03-16T04:54:07;96636.84;;;-0.18;80.19
31357;BME280;60001;48.404;11.738;2023-03-16T04:55:39;96639.63;;;-0.19;80.17
31357;BME280;60001;48.404;11.738;2023-03-16T04:57:11;96634.44;;;-0.19;80.75
31357;BME280;60001;48.404;11.738;2023-03-16T04:58:43;96646.41;;;-0.18;80.71
31357;BME280;60001;48.404;11.738;2023-03-16T05:00:14;96629.25;;;-0.19;80.67
31357;BME280;60001;48.404;11.738;2023-03-16T05:01:48;96630.38;;;-0.22;80.61
31357;BME280;60001;48.404;11.738;2023-03-16T05:03:20;96623.75;;;-0.24;81.03
31357;BME280;60001;48.404;11.738;2023-03-16T05:04:54;96625.72;;;-0.26;80.80
31357;BME280;60001;48.404;11.738;2023-03-16T05:06:24;96638.72;;;-0.26;81.57
31357;BME280;60001;48.404;11.738;2023-03-16T05:07:56;96639.50;;;-0.26;80.89
31357;BME280;60001;48.404;11.738;2023-03-16T05:09:28;96639.50;;;-0.26;81.76
31357;BME280;60001;48.404;11.738;2023-03-16T05:11:00;96627.34;;;-0.25;82.63
31357;BME280;60001;48.404;11.738;2023-03-16T05:12:32;96632.97;;;-0.22;82.67
31357;BME280;60001;48.404;11.738;2023-03-16T05:14:05;96629.06;;;-0.18;82.36
31357;BME280;60001;48.404;11.738;2023-03-16T05:15:37;96631.47;;;-0.16;82.52
31357;BME280;60001;48.404;11.738;2023-03-16T05:17:09;96621.91;;;-0.16;81.55
31357;BME280;60001;48.404;11.738;2023-03-16T05:18:44;96623.25;;;-0.20;82.10
31357;BME280;60001;48.404;11.738;2023-03-16T05:20:17;96615.47;;;-0.20;82.26
31357;BME280;60001;48.404;11.738;2023-03-16T05:21:51;96614.00;;;-0.22;81.48
31357;BME280;60001;48.404;11.738;2023-03-16T05:23:23;96622.06;;;-0.17;81.63
31357;BME280;60001;48.404;11.738;2023-03-16T05:24:55;96619.66;;;-0.19;81.99
31357;BME280;60001;48.404;11.738;2023-03-16T05:26:27;96614.66;;;-0.20;82.60
31357;BME280;60001;48.404;11.738;2023-03-16T05:27:59;96616.41;;;-0.21;82.22
31357;BME280;60001;48.404;11.738;2023-03-16T05:29:31;96611.22;;;-0.21;82.35
31357;BME280;60001;48.404;11.738;2023-03-16T05:31:04;96621.47;;;-0.19;82.59
31357;BME280;60001;48.404;11.738;2023-03-16T05:32:36;96616.25;;;-0.19;82.62
31357;BME280;60001;48.404;11.738;2023-03-16T05:34:08;96621.28;;;-0.18;82.83
31357;BME280;60001;48.404;11.738;2023-03-16T05:35:41;96619.31;;;-0.16;83.26
31357;BME280;60001;48.404;11.738;2023-03-16T05:37:13;96608.28;;;-0.18;82.83
31357;BME280;60001;48.404;11.738;2023-03-16T05:38:45;96616.19;;;-0.11;82.79
31357;BME280;60001;48.404;11.738;2023-03-16T05:40:17;96621.56;;;-0.13;82.62
31357;BME280;60001;48.404;11.738;2023-03-16T05:41:52;96617.50;;;-0.15;82.65
31357;BME280;60001;48.404;11.738;2023-03-16T05:43:24;96617.16;;;-0.12;82.68
31357;BME280;60001;48.404;11.738;2023-03-16T05:44:58;96619.59;;;-0.11;83.10
31357;BME280;60001;48.404;11.738;2023-03-16T05:46:31;96612.97;;;-0.13;82.38
31357;BME280;60001;48.404;11.738;2023-03-16T05:48:03;96609.28;;;-0.19;82.73
31357;BME280;60001;48.404;11.738;2023-03-16T05:49:35;96624.78;;;-0.11;82.88
31357;BME280;60001;48.404;11.738;2023-03-16T05:51:09;96621.38;;;-0.11;82.98
31357;BME280;60001;48.404;11.738;2023-03-16T05:52:44;96621.38;;;-0.11;82.63
31357;BME280;60001;48.404;11.738;2023-03-16T05:54:16;96621.19;;;-0.10;83.05
31357;BME280;60001;48.404;11.738;2023-03-16T05:55:50;96618.41;;;-0.08;82.99
31357;BME280;60001;48.404;11.738;2023-03-16T05:57:22;96620.38;;;-0.10;82.64
31357;BME280;60001;48.404;11.738;2023-03-16T05:58:54;96621.19;;;-0.10;82.91
31357;BME280;60001;48.404;11.738;2023-03-16T06:00:26;96630.41;;;-0.07;82.72
31357;BME280;60001;48.404;11.738;2023-03-16T06:01:59;96621.47;;;-0.05;82.83
31357;BME280;60001;48.404;11.738;2023-03-16T06:03:30;96620.13;;;-0.01;83.16
31357;BME280;60001;48.404;11.738;2023-03-16T06:05:03;96625.78;;;0.03;82.66
31357;BME280;60001;48.404;11.738;2023-03-16T06:06:36;96618.44;;;0.07;82.43
31357;BME280;60001;48.404;11.738;2023-03-16T06:08:08;96616.66;;;0.07;82.94
31357;BME280;60001;48.404;11.738;2023-03-16T06:09:40;96630.78;;;0.05;83.22
31357;BME280;60001;48.404;11.738;2023-03-16T06:11:12;96625.25;;;0.08;83.08
31357;BME280;60001;48.404;11.738;2023-03-16T06:12:44;96630.19;;;0.17;82.71
31357;BME280;60001;48.404;11.738;2023-03-16T06:14:15;96628.84;;;0.21;82.86
31357;BME280;60001;48.404;11.738;2023-03-16T06:15:48;96633.69;;;0.24;82.65
31357;BME280;60001;48.404;11.738;2023-03-16T06:17:20;96630.19;;;0.32;82.59
31357;BME280;60001;48.404;11.738;2023-03-16T06:18:52;96633.59;;;0.33;82.58
31357;BME280;60001;48.404;11.738;2023-03-16T06:20:25;96629.19;;;0.33;82.39
31357;BME280;60001;48.404;11.738;2023-03-16T06:21:59;96633.25;;;0.36;82.50
31357;BME280;60001;48.404;11.738;2023-03-16T06:23:30;96629.66;;;0.37;82.34
31357;BME280;60001;48.404;11.738;2023-03-16T06:25:03;96638.63;;;0.49;82.43
31357;BME280;60001;48.404;11.738;2023-03-16T06:26:35;96642.72;;;0.58;82.99
31357;BME280;60001;48.404;11.738;2023-03-16T06:28:07;96644.59;;;0.64;82.26
31357;BME280;60001;48.404;11.738;2023-03-16T06:29:39;96647.28;;;0.71;81.73
31357;BME280;60001;48.404;11.738;2023-03-16T06:31:11;96647.72;;;0.74;81.96
31357;BME280;60001;48.404;11.738;2023-03-16T06:32:43;96649.69;;;0.87;82.44
31357;BME280;60001;48.404;11.738;2023-03-16T06:34:15;96651.81;;;0.98;82.42
31357;BME280;60001;48.404;11.738;2023-03-16T06:35:47;96656.28;;;1.04;81.40
31357;BME280;60001;48.404;11.738;2023-03-16T06:37:20;96642.53;;;1.10;81.71
31357;BME280;60001;48.404;11.738;2023-03-16T06:38:52;96649.88;;;1.22;81.02
31357;BME280;60001;48.404;11.738;2023-03-16T06:40:23;96648.75;;;1.31;80.97
31357;BME280;60001;48.404;11.738;2023-03-16T06:41:55;96645.22;;;1.38;80.39
31357;BME280;60001;48.404;11.738;2023-03-16T06:43:28;96642.59;;;1.53;80.69
31357;BME280;60001;48.404;11.738;2023-03-16T06:44:59;96641.53;;;1.69;79.81
31357;BME280;60001;48.404;11.738;2023-03-16T06:46:31;96643.75;;;1.72;79.16
31357;BME280;60001;48.404;11.738;2023-03-16T06:48:04;96635.28;;;1.91;79.02
31357;BME280;60001;48.404;11.738;2023-03-16T06:49:37;96644.66;;;2.14;79.05
31357;BME280;60001;48.404;11.738;2023-03-16T06:51:09;96649.81;;;2.35;78.41
31357;BME280;60001;48.404;11.738;2023-03-16T06:52:42;96647.09;;;2.50;77.88
31357;BME280;60001;48.404;11.738;2023-03-16T06:54:14;96643.56;;;2.58;77.27
31357;BME280;60001;48.404;11.738;2023-03-16T06:55:47;96642.16;;;2.62;77.25
31357;BME280;60001;48.404;11.738;2023-03-16T06:57:19;96644.75;;;2.62;76.70
31357;BME280;60001;48.404;11.738;2023-03-16T06:58:51;96639.50;;;2.55;75.46
31357;BME280;60001;48.404;11.738;2023-03-16T07:00:24;96634.06;;;2.50;75.16
31357;BME280;60001;48.404;11.738;2023-03-16T07:01:56;96635.63;;;2.38;74.25
31357;BME280;60001;48.404;11.738;2023-03-16T07:03:28;96636.00;;;2.35;75.10
31357;BME280;60001;48.404;11.738;2023-03-16T07:05:00;96643.44;;;2.38;74.84
31357;BME280;60001;48.404;11.738;2023-03-16T07:06:32;96636.44;;;2.38;74.86
31357;BME280;60001;48.404;11.738;2023-03-16T07:08:06;96632.38;;;2.36;75.23
31357;BME280;60001;48.404;11.738;2023-03-16T07:09:38;96640.03;;;2.37;74.36
31357;BME280;60001;48.404;11.738;2023-03-16T07:11:13;96641.69;;;2.45;74.46
31357;BME280;60001;48.404;11.738;2023-03-16T07:12:45;96640.50;;;2.54;75.41
31357;BME280;60001;48.404;11.738;2023-03-16T07:14:17;96640.94;;;2.58;74.57
31357;BME280;60001;48.404;11.738;2023-03-16T07:15:50;96635.94;;;2.63;75.01
31357;BME280;60001;48.404;11.738;2023-03-16T07:17:22;96640.97;;;2.64;74.53
31357;BME280;60001;48.404;11.738;2023-03-16T07:18:54;96640.56;;;2.61;74.30
31357;BME280;60001;48.404;11.738;2023-03-16T07:20:26;96643.72;;;2.56;73.97
31357;BME280;60001;48.404;11.738;2023-03-16T07:22:00;96644.19;;;2.66;74.35
31357;BME280;60001;48.404;11.738;2023-03-16T07:23:34;96643.97;;;2.61;73.68
31357;BME280;60001;48.404;11.738;2023-03-16T07:25:07;96640.56;;;2.61;73.83
31357;BME280;60001;48.404;11.738;2023-03-16T07:26:41;96651.00;;;2.67;74.06
31357;BME280;60001;48.404;11.738;2023-03-16T07:28:12;96635.38;;;2.67;73.87
31357;BME280;60001;48.404;11.738;2023-03-16T07:29:44;96643.13;;;2.54;73.72
31357;BME280;60001;48.404;11.738;2023-03-16T07:31:16;96639.94;;;2.59;73.96
31357;BME280;60001;48.404;11.738;2023-03-16T07:32:48;96643.59;;;2.71;73.62
31357;BME280;60001;48.404;11.738;2023-03-16T07:34:20;96646.13;;;2.51;74.18
31357;BME280;60001;48.404;11.738;2023-03-16T07:35:52;96643.59;;;2.64;74.08
31357;BME280;60001;48.404;11.738;2023-03-16T07:37:24;96646.84;;;2.73;74.00
31357;BME280;60001;48.404;11.738;2023-03-16T07:38:57;96649.06;;;2.83;73.52
31357;BME280;60001;48.404;11.738;2023-03-16T07:40:29;96644.69;;;2.90;73.84
31357;BME280;60001;48.404;11.738;2023-03-16T07:42:04;96653.38;;;3.03;72.92
31357;BME280;60001;48.404;11.738;2023-03-16T07:43:35;96656.22;;;3.15;73.00
31357;BME280;60001;48.404;11.738;2023-03-16T07:45:08;96651.06;;;3.28;72.70
31357;BME280;60001;48.404;11.738;2023-03-16T07:46:41;96643.81;;;3.24;71.97
31357;BME280;60001;48.404;11.738;2023-03-16T07:48:13;96650.06;;;3.29;71.87
31357;BME280;60001;48.404;11.738;2023-03-16T07:49:45;96654.28;;;3.37;71.97
31357;BME280;60001;48.404;11.738;2023-03-16T07:51:17;96659.09;;;3.40;72.04
31357;BME280;60001;48.404;11.738;2023-03-16T07:52:49;96664.34;;;3.47;71.30
31357;BME280;60001;48.404;11.738;2023-03-16T07:54:22;96668.75;;;3.46;71.62
31357;BME280;60001;48.404;11.738;2023-03-16T07:55:54;96663.75;;;3.51;70.90
31357;BME280;60001;48.404;11.738;2023-03-16T07:57:26;96664.19;;;3.55;72.26
31357;BME280;60001;48.404;11.738;2023-03-16T07:58:58;96664.19;;;3.62;71.86
31357;BME280;60001;48.404;11.738;2023-03-16T08:00:33;96666.81;;;3.62;71.22
31357;BME280;60001;48.404;11.738;2023-03-16T08:02:05;96670.63;;;3.79;71.68
31357;BME280;60001;48.404;11.738;2023-03-16T08:03:41;96667.44;;;3.90;71.20
31357;BME280;60001;48.404;11.738;2023-03-16T08:05:14;96678.06;;;3.95;70.59
31357;BME280;60001;48.404;11.738;2023-03-16T08:06:46;96678.06;;;4.02;70.17
31357;BME280;60001;48.404;11.738;2023-03-16T08:08:18;96667.03;;;4.06;69.71
31357;BME280;60001;48.404;11.738;2023-03-16T08:09:51;96670.66;;;4.12;69.98
31357;BME280;60001;48.404;11.738;2023-03-16T08:11:23;96664.41;;;4.20;70.22
31357;BME280;60001;48.404;11.738;2023-03-16T08:12:55;96676.84;;;4.31;69.55